sensor_id;sensor_type;location;lat;lon;timestamp;pressure;altitude;pressure_sealevel;temperature;humidity
55113;BME280;41006;50.920;3.456;2023-05-11T00:00:27;101289.59;;;11.19;100.00
55113;BME280;41006;50.920;3.456;2023-05-11T00:01:09;101286.94;;;11.21;100.00
55113;BME280;41006;50.920;3.456;2023-05-11T00:01:39;101288.66;;;11.25;100.00
55113;BME280;41006;50.920;3.456;2023-05-11T00:02:11;101287.84;;;11.18;100.00
55113;BME280;41006;50.920;3.456;2023-05-11T00:02:46;101292.31;;;11.15;100.00
55113;BME280;41006;50.920;3.456;2023-05-11T00:03:16;101291.38;;;11.17;100.00
55113;BME280;41006;50.920;3.456;2023-05-11T00:03:47;101289.69;;;11.07;100.00
55113;BME280;41006;50.920;3.456;2023-05-11T00:04:17;101291.47;;;11.08;100.00
55113;BME280;41006;50.920;3.456;2023-05-11T00:04:50;101288.81;;;11.06;100.00
55113;BME280;41006;50.920;3.456;2023-05-11T00:05:21;101287.91;;;11.09;100.00
55113;BME280;41006;50.920;3.456;2023-05-11T00:05:51;101287.91;;;11.09;100.00
55113;BME280;41006;50.920;3.456;2023-05-11T00:06:21;101291.44;;;11.14;100.00
55113;BME280;41006;50.920;3.456;2023-05-11T00:06:54;101295.81;;;11.17;100.00
55113;BME280;41006;50.920;3.456;2023-05-11T00:07:24;101288.66;;;11.26;100.00
55113;BME280;41006;50.920;3.456;2023-05-11T00:07:55;101294.78;;;11.32;100.00
55113;BME280;41006;50.920;3.456;2023-05-11T00:08:26;101298.28;;;11.37;100.00
55113;BME280;41006;50.920;3.456;2023-05-11T00:08:56;101287.63;;;11.40;100.00
55113;BME280;41006;50.920;3.456;2023-05-11T00:09:29;101297.38;;;11.42;100.00
55113;BME280;41006;50.920;3.456;2023-05-11T00:10:02;101292.88;;;11.47;100.00
55113;BME280;41006;50.920;3.456;2023-05-11T00:10:32;101287.59;;;11.46;100.00
55113;BME280;41006;50.920;3.456;2023-05-11T00:11:08;101291.94;;;11.52;100.00
55113;BME280;41006;50.920;3.456;2023-05-11T00:11:41;101285.72;;;11.56;100.00
55113;BME280;41006;50.920;3.456;2023-05-11T00:12:13;101291.88;;;11.58;100.00
55113;BME280;41006;50.920;3.456;2023-05-11T00:12:46;101291.00;;;11.57;100.00
55113;BME280;41006;50.920;3.456;2023-05-11T00:13:16;101283.88;;;11.62;100.00
55113;BME280;41006;50.920;3.456;2023-05-11T00:13:51;101296.25;;;11.63;100.00
55113;BME280;41006;50.920;3.456;2023-05-11T00:14:25;101292.75;;;11.58;100.00
55113;BME280;41006;50.920;3.456;2023-05-11T00:14:55;101288.31;;;11.60;100.00
55113;BME280;41006;50.920;3.456;2023-05-11T00:15:26;101288.28;;;11.63;100.00
55113;BME280;41006;50.920;3.456;2023-05-11T00:15:58;101288.28;;;11.62;100.00
55113;BME280;41006;50.920;3.456;2023-05-11T00:16:29;101288.19;;;11.71;100.00
55113;BME280;41006;50.920;3.456;2023-05-11T00:16:59;101286.41;;;11.73;100.00
55113;BME280;41006;50.920;3.456;2023-05-11T00:17:32;101290.78;;;11.77;100.00
55113;BME280;41006;50.920;3.456;2023-05-11T00:18:07;101281.91;;;11.80;100.00
55113;BME280;41006;50.920;3.456;2023-05-11T00:18:38;101281.94;;;11.74;100.00
55113;BME280;41006;50.920;3.456;2023-05-11T00:19:08;101286.44;;;11.70;100.00
55113;BME280;41006;50.920;3.456;2023-05-11T00:19:41;101284.66;;;11.71;100.00
55113;BME280;41006;50.920;3.456;2023-05-11T00:20:13;101285.63;;;11.63;100.00
55113;BME280;41006;50.920;3.456;2023-05-11T00:20:49;101281.97;;;11.71;100.00
55113;BME280;41006;50.920;3.456;2023-05-11T00:21:22;101280.28;;;11.66;100.00
55113;BME280;41006;50.920;3.456;2023-05-11T00:21:52;101282.97;;;11.62;100.00
55113;BME280;41006;50.920;3.456;2023-05-11T00:22:25;101284.78;;;11.60;100.00
55113;BME280;41006;50.920;3.456;2023-05-11T00:22:58;101285.75;;;11.51;100.00
55113;BME280;41006;50.920;3.456;2023-05-11T00:23:28;101285.75;;;11.51;100.00
55113;BME280;41006;50.920;3.456;2023-05-11T00:23:59;101283.97;;;11.53;100.00
55113;BME280;41006;50.920;3.456;2023-05-11T00:24:29;101280.44;;;11.51;100.00
55113;BME280;41006;50.920;3.456;2023-05-11T00:25:00;101275.13;;;11.51;100.00
55113;BME280;41006;50.920;3.456;2023-05-11T00:25:30;101283.13;;;11.48;100.00
55113;BME280;41006;50.920;3.456;2023-05-11T00:26:03;101283.13;;;11.48;100.00
55113;BME280;41006;50.920;3.456;2023-05-11T00:26:33;101277.81;;;11.48;100.00
55113;BME280;41006;50.920;3.456;2023-05-11T00:27:06;101287.56;;;11.49;100.00
55113;BME280;41006;50.920;3.456;2023-05-11T00:27:36;101284.00;;;11.47;100.00
55113;BME280;41006;50.920;3.456;2023-05-11T00:28:09;101275.13;;;11.51;100.00
55113;BME280;41006;50.920;3.456;2023-05-11T00:28:39;101283.97;;;11.53;100.00
55113;BME280;41006;50.920;3.456;2023-05-11T00:29:10;101282.13;;;11.58;100.00
55113;BME280;41006;50.920;3.456;2023-05-11T00:29:45;101282.97;;;11.62;100.00
55113;BME280;41006;50.920;3.456;2023-05-11T00:30:15;101281.13;;;11.69;100.00
55113;BME280;41006;50.920;3.456;2023-05-11T00:30:53;101283.75;;;11.72;100.00
55113;BME280;41006;50.920;3.456;2023-05-11T00:31:24;101290.06;;;11.64;100.00
55113;BME280;41006;50.920;3.456;2023-05-11T00:31:55;101280.41;;;11.54;100.00
55113;BME280;41006;50.920;3.456;2023-05-11T00:32:27;101284.91;;;11.47;100.00
55113;BME280;41006;50.920;3.456;2023-05-11T00:33:01;101284.91;;;11.47;100.00
55113;BME280;41006;50.920;3.456;2023-05-11T00:33:31;101276.97;;;11.43;100.00
55113;BME280;41006;50.920;3.456;2023-05-11T00:34:01;101288.41;;;11.53;100.00
55113;BME280;41006;50.920;3.456;2023-05-11T00:34:34;101283.97;;;11.53;100.00
55113;BME280;41006;50.920;3.456;2023-05-11T00:35:05;101284.81;;;11.55;100.00
55113;BME280;41006;50.920;3.456;2023-05-11T00:35:40;101282.28;;;11.43;100.00
55113;BME280;41006;50.920;3.456;2023-05-11T00:36:17;101276.13;;;11.41;100.00
55113;BME280;41006;50.920;3.456;2023-05-11T00:36:50;101285.84;;;11.40;100.00
55113;BME280;41006;50.920;3.456;2023-05-11T00:37:23;101273.50;;;11.38;100.00
55113;BME280;41006;50.920;3.456;2023-05-11T00:37:53;101279.69;;;11.35;100.00
55113;BME280;41006;50.920;3.456;2023-05-11T00:38:23;101276.13;;;11.39;100.00
55113;BME280;41006;50.920;3.456;2023-05-11T00:38:58;101273.34;;;11.50;100.00
55113;BME280;41006;50.920;3.456;2023-05-11T00:39:31;101281.44;;;11.39;100.00
55113;BME280;41006;50.920;3.456;2023-05-11T00:40:09;101276.97;;;11.46;100.00
55113;BME280;41006;50.920;3.456;2023-05-11T00:40:40;101276.06;;;11.45;100.00
55113;BME280;41006;50.920;3.456;2023-05-11T00:41:10;101280.56;;;11.37;100.00
55113;BME280;41006;50.920;3.456;2023-05-11T00:41:40;101280.66;;;11.29;100.00
55113;BME280;41006;50.920;3.456;2023-05-11T00:42:11;101275.38;;;11.26;100.00
55113;BME280;41006;50.920;3.456;2023-05-11T00:42:46;101276.19;;;11.32;100.00
55113;BME280;41006;50.920;3.456;2023-05-11T00:43:16;101279.75;;;11.29;100.00
55113;BME280;41006;50.920;3.456;2023-05-11T00:43:46;101282.34;;;11.37;100.00
55113;BME280;41006;50.920;3.456;2023-05-11T00:44:17;101271.72;;;11.35;100.00
55113;BME280;41006;50.920;3.456;2023-05-11T00:44:50;101271.72;;;11.37;100.00
55113;BME280;41006;50.920;3.456;2023-05-11T00:45:25;101272.66;;;11.34;100.00
55113;BME280;41006;50.920;3.456;2023-05-11T00:45:58;101271.72;;;11.37;100.00
55113;BME280;41006;50.920;3.456;2023-05-11T00:46:29;101269.94;;;11.36;100.00
55113;BME280;41006;50.920;3.456;2023-05-11T00:47:04;101276.06;;;11.44;100.00
55113;BME280;41006;50.920;3.456;2023-05-11T00:47:37;101276.94;;;11.49;100.00
55113;BME280;41006;50.920;3.456;2023-05-11T00:48:07;101273.38;;;11.47;100.00
55113;BME280;41006;50.920;3.456;2023-05-11T00:48:40;101268.97;;;11.46;100.00
55113;BME280;41006;50.920;3.456;2023-05-11T00:49:10;101270.81;;;11.41;100.00
55113;BME280;41006;50.920;3.456;2023-05-11T00:49:51;101268.16;;;11.41;100.00
55113;BME280;41006;50.920;3.456;2023-05-11T00:50:24;101269.03;;;11.41;100.00
55113;BME280;41006;50.920;3.456;2023-05-11T00:50:54;101265.44;;;11.45;100.00
55113;BME280;41006;50.920;3.456;2023-05-11T00:51:27;101266.31;;;11.46;100.00
55113;BME280;41006;50.920;3.456;2023-05-11T00:52:00;101272.59;;;11.39;100.00
55113;BME280;41006;50.920;3.456;2023-05-11T00:52:33;101273.66;;;11.19;100.00
55113;BME280;41006;50.920;3.456;2023-05-11T00:53:04;101270.19;;;11.14;100.00
55113;BME280;41006;50.920;3.456;2023-05-11T00:53:37;101263.09;;;11.13;100.00
55113;BME280;41006;50.920;3.456;2023-05-11T00:54:08;101263.09;;;11.13;100.00
55113;BME280;41006;50.920;3.456;2023-05-11T00:54:45;101271.03;;;11.18;100.00
55113;BME280;41006;50.920;3.456;2023-05-11T00:55:18;101261.31;;;11.15;100.00
55113;BME280;41006;50.920;3.456;2023-05-11T00:55:52;101256.09;;;11.06;100.00
55113;BME280;41006;50.920;3.456;2023-05-11T00:56:22;101256.13;;;11.03;100.00
55113;BME280;41006;50.920;3.456;2023-05-11T00:56:53;101265.81;;;11.04;100.00
55113;BME280;41006;50.920;3.456;2023-05-11T00:57:23;101259.66;;;10.99;100.00
55113;BME280;41006;50.920;3.456;2023-05-11T00:57:54;101261.41;;;11.03;100.00
55113;BME280;41006;50.920;3.456;2023-05-11T00:58:24;101261.41;;;11.04;100.00
55113;BME280;41006;50.920;3.456;2023-05-11T00:58:55;101259.63;;;11.06;100.00
55113;BME280;41006;50.920;3.456;2023-05-11T00:59:28;101254.25;;;11.14;100.00
55113;BME280;41006;50.920;3.456;2023-05-11T01:00:03;101256.91;;;11.14;100.00
55113;BME280;41006;50.920;3.456;2023-05-11T01:00:33;101258.56;;;11.24;100.00
55113;BME280;41006;50.920;3.456;2023-05-11T01:01:04;101260.31;;;11.27;100.00
55113;BME280;41006;50.920;3.456;2023-05-11T01:01:37;101261.22;;;11.24;100.00
55113;BME280;41006;50.920;3.456;2023-05-11T01:02:15;101264.78;;;11.20;100.00
55113;BME280;41006;50.920;3.456;2023-05-11T01:02:45;101267.53;;;11.13;100.00
55113;BME280;41006;50.920;3.456;2023-05-11T01:03:16;101262.25;;;11.08;100.00
55113;BME280;41006;50.920;3.456;2023-05-11T01:03:49;101256.97;;;11.05;100.00
55113;BME280;41006;50.920;3.456;2023-05-11T01:04:21;101256.94;;;11.08;100.00
55113;BME280;41006;50.920;3.456;2023-05-11T01:04:55;101257.78;;;11.13;100.00
55113;BME280;41006;50.920;3.456;2023-05-11T01:05:32;101263.13;;;11.10;100.00
55113;BME280;41006;50.920;3.456;2023-05-11T01:06:13;101256.03;;;11.09;100.00
55113;BME280;41006;50.920;3.456;2023-05-11T01:06:56;101263.16;;;11.07;100.00
55113;BME280;41006;50.920;3.456;2023-05-11T01:08:16;101263.22;;;11.01;100.00
55113;BME280;41006;50.920;3.456;2023-05-11T01:08:38;101252.63;;;10.95;100.00
55113;BME280;41006;50.920;3.456;2023-05-11T01:09:43;101255.16;;;11.10;100.00
55113;BME280;41006;50.920;3.456;2023-05-11T01:10:32;101256.84;;;11.16;100.00
55113;BME280;41006;50.920;3.456;2023-05-11T01:11:16;101260.41;;;11.19;100.00
55113;BME280;41006;50.920;3.456;2023-05-11T01:12:10;101250.63;;;11.21;100.00
55113;BME280;41006;50.920;3.456;2023-05-11T01:13:39;101251.75;;;10.94;100.00
55113;BME280;41006;50.920;3.456;2023-05-11T01:14:19;101256.16;;;10.98;100.00
55113;BME280;41006;50.920;3.456;2023-05-11T01:15:09;101252.63;;;10.98;100.00
55113;BME280;41006;50.920;3.456;2023-05-11T01:15:49;101252.50;;;11.10;100.00
55113;BME280;41006;50.920;3.456;2023-05-11T01:16:24;101244.50;;;11.15;100.00
55113;BME280;41006;50.920;3.456;2023-05-11T01:17:10;101251.59;;;11.13;100.00
55113;BME280;41006;50.920;3.456;2023-05-11T01:18:37;101252.47;;;11.11;100.00
55113;BME280;41006;50.920;3.456;2023-05-11T01:19:49;101254.16;;;11.20;100.00
55113;BME280;41006;50.920;3.456;2023-05-11T01:20:26;101253.28;;;11.21;100.00
55113;BME280;41006;50.920;3.456;2023-05-11T01:21:01;101256.84;;;11.17;100.00
55113;BME280;41006;50.920;3.456;2023-05-11T01:21:34;101250.72;;;11.09;100.00
55113;BME280;41006;50.920;3.456;2023-05-11T01:22:17;101252.47;;;11.11;100.00
55113;BME280;41006;50.920;3.456;2023-05-11T01:24:53;101251.63;;;11.11;100.00
55113;BME280;41006;50.920;3.456;2023-05-11T01:27:05;101253.25;;;11.24;100.00
55113;BME280;41006;50.920;3.456;2023-05-11T01:29:12;101250.56;;;11.27;100.00
55113;BME280;41006;50.920;3.456;2023-05-11T01:31:14;101250.59;;;11.24;100.00
55113;BME280;41006;50.920;3.456;2023-05-11T01:31:54;101251.50;;;11.23;100.00
55113;BME280;41006;50.920;3.456;2023-05-11T01:32:26;101250.63;;;11.20;100.00
55113;BME280;41006;50.920;3.456;2023-05-11T01:33:05;101256.78;;;11.23;100.00
55113;BME280;41006;50.920;3.456;2023-05-11T01:33:38;101254.06;;;11.34;100.00
55113;BME280;41006;50.920;3.456;2023-05-11T01:34:18;101262.91;;;11.33;100.00
55113;BME280;41006;50.920;3.456;2023-05-11T01:35:01;101257.63;;;11.28;100.00
55113;BME280;41006;50.920;3.456;2023-05-11T01:35:40;101250.53;;;11.30;100.00
55113;BME280;41006;50.920;3.456;2023-05-11T01:36:13;101260.19;;;11.41;100.00
55113;BME280;41006;50.920;3.456;2023-05-11T01:36:59;101254.81;;;11.44;100.00
55113;BME280;41006;50.920;3.456;2023-05-11T01:37:34;101256.59;;;11.43;100.00
55113;BME280;41006;50.920;3.456;2023-05-11T01:38:13;101259.28;;;11.39;100.00
55113;BME280;41006;50.920;3.456;2023-05-11T01:38:46;101260.19;;;11.41;100.00
55113;BME280;41006;50.920;3.456;2023-05-11T01:39:21;101256.72;;;11.34;100.00
55113;BME280;41006;50.920;3.456;2023-05-11T01:39:56;101258.47;;;11.32;100.00
55113;BME280;41006;50.920;3.456;2023-05-11T01:40:34;101256.81;;;11.20;100.00
55113;BME280;41006;50.920;3.456;2023-05-11T01:41:14;101255.13;;;11.13;100.00
55113;BME280;41006;50.920;3.456;2023-05-11T01:41:49;101259.63;;;11.05;100.00
55113;BME280;41006;50.920;3.456;2023-05-11T01:42:27;101253.38;;;11.09;100.00
55113;BME280;41006;50.920;3.456;2023-05-11T01:43:12;101259.66;;;11.00;100.00
55113;BME280;41006;50.920;3.456;2023-05-11T01:43:52;101259.78;;;10.86;100.00
55113;BME280;41006;50.920;3.456;2023-05-11T01:44:31;101251.84;;;10.83;100.00
55113;BME280;41006;50.920;3.456;2023-05-11T01:45:06;101259.66;;;10.99;100.00
55113;BME280;41006;50.920;3.456;2023-05-11T01:45:42;101254.34;;;11.02;100.00
55113;BME280;41006;50.920;3.456;2023-05-11T01:46:20;101253.53;;;10.90;100.00
55113;BME280;41006;50.920;3.456;2023-05-11T01:46:55;101252.63;;;10.98;100.00
55113;BME280;41006;50.920;3.456;2023-05-11T01:47:27;101257.81;;;11.10;100.00
55113;BME280;41006;50.920;3.456;2023-05-11T01:48:02;101253.38;;;11.09;100.00
55113;BME280;41006;50.920;3.456;2023-05-11T01:48:39;101258.63;;;11.18;100.00
55113;BME280;41006;50.920;3.456;2023-05-11T01:49:12;101258.59;;;11.23;100.00
55113;BME280;41006;50.920;3.456;2023-05-11T01:49:52;101257.66;;;11.25;100.00
55113;BME280;41006;50.920;3.456;2023-05-11T01:50:26;101255.88;;;11.27;100.00
55113;BME280;41006;50.920;3.456;2023-05-11T01:51:00;101262.13;;;11.20;100.00
55113;BME280;41006;50.920;3.456;2023-05-11T01:51:40;101262.16;;;11.19;100.00
55113;BME280;41006;50.920;3.456;2023-05-11T01:52:12;101259.47;;;11.22;100.00
55113;BME280;41006;50.920;3.456;2023-05-11T01:52:44;101262.16;;;11.17;100.00
55113;BME280;41006;50.920;3.456;2023-05-11T01:53:16;101264.00;;;11.09;100.00
55113;BME280;41006;50.920;3.456;2023-05-11T01:53:48;101269.38;;;11.03;100.00
55113;BME280;41006;50.920;3.456;2023-05-11T01:54:25;101250.88;;;10.93;100.00
55113;BME280;41006;50.920;3.456;2023-05-11T01:54:58;101257.97;;;10.91;100.00
55113;BME280;41006;50.920;3.456;2023-05-11T01:55:35;101259.66;;;11.02;100.00
55113;BME280;41006;50.920;3.456;2023-05-11T01:56:07;101256.09;;;11.04;100.00
55113;BME280;41006;50.920;3.456;2023-05-11T01:56:40;101256.84;;;11.16;100.00
55113;BME280;41006;50.920;3.456;2023-05-11T01:57:17;101261.31;;;11.12;100.00
55113;BME280;41006;50.920;3.456;2023-05-11T01:57:52;101263.06;;;11.16;100.00
55113;BME280;41006;50.920;3.456;2023-05-11T01:58:28;101262.25;;;11.11;100.00
55113;BME280;41006;50.920;3.456;2023-05-11T01:58:59;101262.16;;;11.19;100.00
55113;BME280;41006;50.920;3.456;2023-05-11T01:59:31;101256.94;;;11.11;100.00
55113;BME280;41006;50.920;3.456;2023-05-11T02:00:02;101265.75;;;11.11;100.00
55113;BME280;41006;50.920;3.456;2023-05-11T02:00:33;101258.63;;;11.17;100.00
55113;BME280;41006;50.920;3.456;2023-05-11T02:01:05;101262.97;;;11.25;100.00
55113;BME280;41006;50.920;3.456;2023-05-11T02:01:38;101270.09;;;11.23;100.00
55113;BME280;41006;50.920;3.456;2023-05-11T02:02:15;101262.06;;;11.28;100.00
55113;BME280;41006;50.920;3.456;2023-05-11T02:02:46;101260.31;;;11.24;100.00
55113;BME280;41006;50.920;3.456;2023-05-11T02:03:18;101264.78;;;11.23;100.00
55113;BME280;41006;50.920;3.456;2023-05-11T02:03:53;101264.75;;;11.25;100.00
55113;BME280;41006;50.920;3.456;2023-05-11T02:04:28;101262.97;;;11.24;100.00
55113;BME280;41006;50.920;3.456;2023-05-11T02:05:00;101270.13;;;11.19;100.00
55113;BME280;41006;50.920;3.456;2023-05-11T02:05:33;101257.69;;;11.22;100.00
55113;BME280;41006;50.920;3.456;2023-05-11T02:06:05;101269.22;;;11.21;100.00
55113;BME280;41006;50.920;3.456;2023-05-11T02:06:38;101266.66;;;11.09;100.00
55113;BME280;41006;50.920;3.456;2023-05-11T02:07:11;101268.41;;;11.13;100.00
55113;BME280;41006;50.920;3.456;2023-05-11T02:07:45;101270.22;;;11.11;100.00
55113;BME280;41006;50.920;3.456;2023-05-11T02:08:21;101268.44;;;11.07;100.00
55113;BME280;41006;50.920;3.456;2023-05-11T02:08:54;101261.47;;;10.93;100.00
55113;BME280;41006;50.920;3.456;2023-05-11T02:09:30;101269.41;;;10.98;100.00
55113;BME280;41006;50.920;3.456;2023-05-11T02:10:02;101266.72;;;11.06;100.00
55113;BME280;41006;50.920;3.456;2023-05-11T02:10:35;101268.44;;;11.07;100.00
55113;BME280;41006;50.920;3.456;2023-05-11T02:11:08;101270.25;;;11.05;100.00
55113;BME280;41006;50.920;3.456;2023-05-11T02:11:43;101268.56;;;10.96;100.00
55113;BME280;41006;50.920;3.456;2023-05-11T02:12:17;101266.81;;;10.89;100.00
55113;BME280;41006;50.920;3.456;2023-05-11T02:12:48;101268.56;;;10.98;100.00
55113;BME280;41006;50.920;3.456;2023-05-11T02:13:24;101270.22;;;11.08;100.00
55113;BME280;41006;50.920;3.456;2023-05-11T02:13:58;101269.38;;;11.04;100.00
55113;BME280;41006;50.920;3.456;2023-05-11T02:14:33;101269.31;;;11.09;100.00
55113;BME280;41006;50.920;3.456;2023-05-11T02:15:05;101276.34;;;11.16;100.00
55113;BME280;41006;50.920;3.456;2023-05-11T02:15:43;101271.94;;;11.12;100.00
55113;BME280;41006;50.920;3.456;2023-05-11T02:16:15;101270.22;;;11.08;100.00
55113;BME280;41006;50.920;3.456;2023-05-11T02:16:49;101271.97;;;11.09;100.00
55113;BME280;41006;50.920;3.456;2023-05-11T02:17:20;101272.88;;;11.08;100.00
55113;BME280;41006;50.920;3.456;2023-05-11T02:17:52;101270.38;;;10.92;100.00
55113;BME280;41006;50.920;3.456;2023-05-11T02:18:27;101272.09;;;10.93;100.00
55113;BME280;41006;50.920;3.456;2023-05-11T02:18:58;101265.09;;;10.86;100.00
55113;BME280;41006;50.920;3.456;2023-05-11T02:19:30;101262.44;;;10.86;100.00
55113;BME280;41006;50.920;3.456;2023-05-11T02:20:06;101271.28;;;10.87;100.00
55113;BME280;41006;50.920;3.456;2023-05-11T02:20:44;101279.25;;;10.85;100.00
55113;BME280;41006;50.920;3.456;2023-05-11T02:21:17;101273.09;;;10.82;100.00
55113;BME280;41006;50.920;3.456;2023-05-11T02:21:52;101274.78;;;10.89;100.00
55113;BME280;41006;50.920;3.456;2023-05-11T02:22:25;101272.97;;;10.94;100.00
55113;BME280;41006;50.920;3.456;2023-05-11T02:22:57;101272.13;;;10.90;100.00
55113;BME280;41006;50.920;3.456;2023-05-11T02:23:31;101271.25;;;10.91;100.00
55113;BME280;41006;50.920;3.456;2023-05-11T02:24:04;101268.56;;;10.95;100.00
55113;BME280;41006;50.920;3.456;2023-05-11T02:24:35;101266.81;;;10.90;100.00
55113;BME280;41006;50.920;3.456;2023-05-11T02:25:09;101264.97;;;10.99;100.00
55113;BME280;41006;50.920;3.456;2023-05-11T02:25:44;101272.03;;;11.06;100.00
55113;BME280;41006;50.920;3.456;2023-05-11T02:26:14;101270.28;;;11.02;100.00
55113;BME280;41006;50.920;3.456;2023-05-11T02:26:48;101273.84;;;10.98;100.00
55113;BME280;41006;50.920;3.456;2023-05-11T02:27:23;101270.22;;;11.08;100.00
55113;BME280;41006;50.920;3.456;2023-05-11T02:27:53;101273.75;;;11.10;100.00
55113;BME280;41006;50.920;3.456;2023-05-11T02:28:24;101280.88;;;11.06;100.00
55113;BME280;41006;50.920;3.456;2023-05-11T02:28:57;101271.97;;;11.09;100.00
55113;BME280;41006;50.920;3.456;2023-05-11T02:29:29;101277.22;;;11.15;100.00
55113;BME280;41006;50.920;3.456;2023-05-11T02:30:04;101278.09;;;11.17;100.00
55113;BME280;41006;50.920;3.456;2023-05-11T02:30:55;101276.41;;;11.07;100.00
55113;BME280;41006;50.920;3.456;2023-05-11T02:31:31;101275.53;;;11.09;100.00
55113;BME280;41006;50.920;3.456;2023-05-11T02:32:06;101279.91;;;11.12;100.00
55113;BME280;41006;50.920;3.456;2023-05-11T02:32:48;101276.41;;;11.07;100.00
55113;BME280;41006;50.920;3.456;2023-05-11T02:33:27;101279.03;;;11.13;100.00
55113;BME280;41006;50.920;3.456;2023-05-11T02:34:05;101280.75;;;11.17;100.00
55113;BME280;41006;50.920;3.456;2023-05-11T02:34:53;101285.22;;;11.12;100.00
55113;BME280;41006;50.920;3.456;2023-05-11T02:35:28;101279.00;;;11.16;100.00
55113;BME280;41006;50.920;3.456;2023-05-11T02:36:02;101284.22;;;11.25;100.00
55113;BME280;41006;50.920;3.456;2023-05-11T02:36:40;101278.16;;;11.13;100.00
55113;BME280;41006;50.920;3.456;2023-05-11T02:37:17;101280.00;;;11.04;100.00
55113;BME280;41006;50.920;3.456;2023-05-11T02:37:55;101277.28;;;11.10;100.00
55113;BME280;41006;50.920;3.456;2023-05-11T02:38:34;101277.22;;;11.18;100.00
55113;BME280;41006;50.920;3.456;2023-05-11T02:39:07;101280.72;;;11.22;100.00
55113;BME280;41006;50.920;3.456;2023-05-11T02:39:43;101286.13;;;11.14;100.00
55113;BME280;41006;50.920;3.456;2023-05-11T02:40:19;101286.13;;;11.14;100.00
55113;BME280;41006;50.920;3.456;2023-05-11T02:40:57;101285.19;;;11.15;100.00
55113;BME280;41006;50.920;3.456;2023-05-11T02:41:33;101282.53;;;11.18;100.00
55113;BME280;41006;50.920;3.456;2023-05-11T02:42:16;101287.84;;;11.17;100.00
55113;BME280;41006;50.920;3.456;2023-05-11T02:42:52;101286.06;;;11.16;100.00
55113;BME280;41006;50.920;3.456;2023-05-11T02:43:30;101291.31;;;11.25;100.00
55113;BME280;41006;50.920;3.456;2023-05-11T02:44:06;101294.03;;;11.17;100.00
55113;BME280;41006;50.920;3.456;2023-05-11T02:44:44;101288.66;;;11.26;100.00
55113;BME280;41006;50.920;3.456;2023-05-11T02:45:21;101281.56;;;11.27;100.00
55113;BME280;41006;50.920;3.456;2023-05-11T02:45:58;101289.50;;;11.30;100.00
55113;BME280;41006;50.920;3.456;2023-05-11T02:46:32;101285.97;;;11.29;100.00
55113;BME280;41006;50.920;3.456;2023-05-11T02:47:11;101287.66;;;11.37;100.00
55113;BME280;41006;50.920;3.456;2023-05-11T02:47:51;101285.97;;;11.29;100.00
55113;BME280;41006;50.920;3.456;2023-05-11T02:48:26;101291.28;;;11.31;100.00
55113;BME280;41006;50.920;3.456;2023-05-11T02:48:58;101291.19;;;11.36;100.00
55113;BME280;41006;50.920;3.456;2023-05-11T02:49:31;101285.81;;;11.43;100.00
55113;BME280;41006;50.920;3.456;2023-05-11T02:50:08;101276.97;;;11.46;100.00
55113;BME280;41006;50.920;3.456;2023-05-11T02:50:40;101289.34;;;11.45;100.00
55113;BME280;41006;50.920;3.456;2023-05-11T02:51:17;101295.53;;;11.49;100.00
55113;BME280;41006;50.920;3.456;2023-05-11T02:51:51;101293.91;;;11.34;100.00
55113;BME280;41006;50.920;3.456;2023-05-11T02:52:24;101289.50;;;11.28;100.00
55113;BME280;41006;50.920;3.456;2023-05-11T02:52:58;101283.31;;;11.31;100.00
55113;BME280;41006;50.920;3.456;2023-05-11T02:53:37;101290.38;;;11.30;100.00
55113;BME280;41006;50.920;3.456;2023-05-11T02:54:14;101289.47;;;11.35;100.00
55113;BME280;41006;50.920;3.456;2023-05-11T02:54:46;101284.13;;;11.38;100.00
55113;BME280;41006;50.920;3.456;2023-05-11T02:55:19;101288.63;;;11.31;100.00
55113;BME280;41006;50.920;3.456;2023-05-11T02:55:53;101288.59;;;11.33;100.00
55113;BME280;41006;50.920;3.456;2023-05-11T02:56:24;101292.16;;;11.30;100.00
55113;BME280;41006;50.920;3.456;2023-05-11T02:56:55;101295.75;;;11.26;100.00
55113;BME280;41006;50.920;3.456;2023-05-11T02:57:28;101293.91;;;11.34;100.00
55113;BME280;41006;50.920;3.456;2023-05-11T02:57:59;101284.13;;;11.38;100.00
55113;BME280;41006;50.920;3.456;2023-05-11T02:58:32;101291.16;;;11.42;100.00
55113;BME280;41006;50.920;3.456;2023-05-11T02:59:06;101284.91;;;11.47;100.00
55113;BME280;41006;50.920;3.456;2023-05-11T02:59:36;101285.72;;;11.54;100.00
55113;BME280;41006;50.920;3.456;2023-05-11T03:00:13;101289.25;;;11.56;100.00
55113;BME280;41006;50.920;3.456;2023-05-11T03:00:44;101290.16;;;11.52;100.00
55113;BME280;41006;50.920;3.456;2023-05-11T03:01:17;101286.56;;;11.58;100.00
55113;BME280;41006;50.920;3.456;2023-05-11T03:01:52;101292.81;;;11.52;100.00
55113;BME280;41006;50.920;3.456;2023-05-11T03:02:25;101289.31;;;11.47;100.00
55113;BME280;41006;50.920;3.456;2023-05-11T03:02:55;101290.13;;;11.57;100.00
55113;BME280;41006;50.920;3.456;2023-05-11T03:03:28;101288.44;;;11.50;100.00
55113;BME280;41006;50.920;3.456;2023-05-11T03:03:58;101284.91;;;11.49;100.00
55113;BME280;41006;50.920;3.456;2023-05-11T03:04:29;101291.97;;;11.50;100.00
55113;BME280;41006;50.920;3.456;2023-05-11T03:04:59;101291.13;;;11.45;100.00
55113;BME280;41006;50.920;3.456;2023-05-11T03:05:30;101290.13;;;11.55;100.00
55113;BME280;41006;50.920;3.456;2023-05-11T03:06:00;101291.94;;;11.53;100.00
55113;BME280;41006;50.920;3.456;2023-05-11T03:06:31;101292.78;;;11.55;100.00